Hlavní strana
METAR-TAF:

METAR-TAF

Letiště :

Naval Auxiliary Landing Field Fentress

Chesapeake, Virginie, Spojené státy americké

zeměpisná šířka: 36-42-03N, zeměpisná délka: 076-07-42W, výška: 3 m

Aktuální stav počasí

Zpráva byla vytvořena před 51 minutami, v 16:56 UTC
vítr z různých směrů 6 kt s nárazy do 19 kt
Teplota 11°C
Vlhkost vzduchu 32%
Tlak 1011 hPa
Viditelnost: 16.1 km
Jasno

METAR: KNFE 271656Z AUTO VRB06G19KT 10SM CLR 11/M05 A2986 RMK AO2 SLP112 T01061050 $

Čas: 12:47 (17:47 UTC)


TAF: chybějící

Stav a předpovědi počasí z více než 4 000 letišť (zprávy METAR a TAF).

Červené a žluté tečky na mapě představují dostupné meteorologické stanice.

Když kurzor umístíte na tečku, zobrazí se název stanice.

Pak kliknutím zobrazíte stav a předpověď počasí.

Chcete-li změnit mapu, kliknutím na zelené tlačítko se znaménkem +mapu přiblížíte, kliknutím na zelené tlačítko se znaménkem – mapu oddálíte a kliknutím na zelené šipky přejdete na sousední mapy.


METAR-TAF: